sensor_id;sensor_type;location;lat;lon;timestamp;pressure;altitude;pressure_sealevel;temperature;humidity
77212;BME280;66206;0.000;0.000;2024-01-27T00:00:18;99370.09;;;21.53;26.77
77212;BME280;66206;0.000;0.000;2024-01-27T00:02:45;99367.13;;;21.46;26.73
77212;BME280;66206;0.000;0.000;2024-01-27T00:05:11;99364.87;;;21.47;26.73
77212;BME280;66206;0.000;0.000;2024-01-27T00:07:38;99368.01;;;21.54;26.70
77212;BME280;66206;0.000;0.000;2024-01-27T00:10:05;99368.55;;;21.34;26.70
77212;BME280;66206;0.000;0.000;2024-01-27T00:12:32;99371.76;;;21.35;26.79
77212;BME280;66206;0.000;0.000;2024-01-27T00:14:59;99369.83;;;21.60;26.56
77212;BME280;66206;0.000;0.000;2024-01-27T00:17:25;99371.57;;;21.38;26.67
77212;BME280;66206;0.000;0.000;2024-01-27T00:19:52;99368.51;;;21.49;26.60
77212;BME280;66206;0.000;0.000;2024-01-27T00:22:19;99370.38;;;21.51;26.55
77212;BME280;66206;0.000;0.000;2024-01-27T00:24:45;99373.69;;;21.51;26.59
77212;BME280;66206;0.000;0.000;2024-01-27T00:27:12;99375.79;;;21.58;26.58
77212;BME280;66206;0.000;0.000;2024-01-27T00:29:39;99378.91;;;21.51;26.68
77212;BME280;66206;0.000;0.000;2024-01-27T00:32:05;99381.06;;;21.30;26.65
77212;BME280;66206;0.000;0.000;2024-01-27T00:34:32;99386.99;;;21.33;26.71
77212;BME280;66206;0.000;0.000;2024-01-27T00:36:59;99384.40;;;21.17;26.78
77212;BME280;66206;0.000;0.000;2024-01-27T00:39:25;99387.29;;;21.45;26.63
77212;BME280;66206;0.000;0.000;2024-01-27T00:41:52;99388.06;;;21.17;26.71
77212;BME280;66206;0.000;0.000;2024-01-27T00:44:19;99394.07;;;21.54;26.53
77212;BME280;66206;0.000;0.000;2024-01-27T00:46:46;99404.22;;;21.13;26.77
77212;BME280;66206;0.000;0.000;2024-01-27T00:49:12;99413.56;;;21.34;26.75
77212;BME280;66206;0.000;0.000;2024-01-27T00:51:39;99413.93;;;21.35;26.62
77212;BME280;66206;0.000;0.000;2024-01-27T00:54:06;99417.46;;;21.24;26.74
77212;BME280;66206;0.000;0.000;2024-01-27T00:56:32;99423.70;;;21.03;26.85
77212;BME280;66206;0.000;0.000;2024-01-27T00:58:59;99429.06;;;21.07;26.90
77212;BME280;66206;0.000;0.000;2024-01-27T01:01:26;99430.98;;;21.11;26.80
77212;BME280;66206;0.000;0.000;2024-01-27T01:03:52;99434.81;;;21.07;26.84
77212;BME280;66206;0.000;0.000;2024-01-27T01:06:19;99428.99;;;20.95;27.02
77212;BME280;66206;0.000;0.000;2024-01-27T01:08:46;99432.03;;;21.05;26.81
77212;BME280;66206;0.000;0.000;2024-01-27T01:11:13;99433.74;;;21.16;26.86
77212;BME280;66206;0.000;0.000;2024-01-27T01:13:39;99436.29;;;20.94;26.90
77212;BME280;66206;0.000;0.000;2024-01-27T01:16:06;99437.16;;;21.09;26.80
77212;BME280;66206;0.000;0.000;2024-01-27T01:18:33;99442.65;;;20.87;26.83
77212;BME280;66206;0.000;0.000;2024-01-27T01:21:00;99442.87;;;21.06;26.89
77212;BME280;66206;0.000;0.000;2024-01-27T01:23:26;99445.30;;;21.01;26.92
77212;BME280;66206;0.000;0.000;2024-01-27T01:25:53;99447.35;;;21.07;26.79
77212;BME280;66206;0.000;0.000;2024-01-27T01:28:20;99441.76;;;21.00;26.96
77212;BME280;66206;0.000;0.000;2024-01-27T01:30:46;99441.82;;;20.83;26.94
77212;BME280;66206;0.000;0.000;2024-01-27T01:33:13;99439.08;;;21.05;26.87
77212;BME280;66206;0.000;0.000;2024-01-27T01:35:40;99442.98;;;21.01;26.84
77212;BME280;66206;0.000;0.000;2024-01-27T01:38:06;99442.96;;;21.04;26.82
77212;BME280;66206;0.000;0.000;2024-01-27T01:40:33;99447.38;;;21.37;26.57
77212;BME280;66206;0.000;0.000;2024-01-27T01:43:00;99450.18;;;21.15;26.74
77212;BME280;66206;0.000;0.000;2024-01-27T01:45:26;99451.79;;;21.01;27.23
77212;BME280;66206;0.000;0.000;2024-01-27T01:47:53;99452.11;;;20.89;27.43
77212;BME280;66206;0.000;0.000;2024-01-27T01:50:20;99451.62;;;20.74;27.70
77212;BME280;66206;0.000;0.000;2024-01-27T01:52:47;99455.81;;;20.85;27.56
77212;BME280;66206;0.000;0.000;2024-01-27T01:55:15;99461.38;;;20.77;27.57
77212;BME280;66206;0.000;0.000;2024-01-27T01:57:42;99464.99;;;20.86;27.52
77212;BME280;66206;0.000;0.000;2024-01-27T02:00:09;99468.06;;;20.72;27.58
77212;BME280;66206;0.000;0.000;2024-01-27T02:02:36;99471.87;;;20.83;27.56
77212;BME280;66206;0.000;0.000;2024-01-27T02:05:03;99472.07;;;21.02;27.38
77212;BME280;66206;0.000;0.000;2024-01-27T02:07:30;99473.10;;;20.75;27.66
77212;BME280;66206;0.000;0.000;2024-01-27T02:09:57;99467.48;;;20.98;27.49
77212;BME280;66206;0.000;0.000;2024-01-27T02:12:23;99467.35;;;20.56;27.82
77212;BME280;66206;0.000;0.000;2024-01-27T02:14:50;99470.77;;;20.76;27.76
77212;BME280;66206;0.000;0.000;2024-01-27T02:17:17;99471.39;;;20.58;27.84
77212;BME280;66206;0.000;0.000;2024-01-27T02:19:43;99474.03;;;20.85;27.67
77212;BME280;66206;0.000;0.000;2024-01-27T02:22:10;99479.28;;;20.70;27.73
77212;BME280;66206;0.000;0.000;2024-01-27T02:24:37;99478.68;;;20.59;27.84
77212;BME280;66206;0.000;0.000;2024-01-27T02:27:04;99484.04;;;20.50;27.85
77212;BME280;66206;0.000;0.000;2024-01-27T02:29:31;99487.52;;;20.82;27.73
77212;BME280;66206;0.000;0.000;2024-01-27T02:31:57;99485.04;;;20.58;27.94
77212;BME280;66206;0.000;0.000;2024-01-27T02:34:24;99489.55;;;20.59;27.86
77212;BME280;66206;0.000;0.000;2024-01-27T02:36:51;99495.64;;;20.50;28.07
77212;BME280;66206;0.000;0.000;2024-01-27T02:39:17;99496.69;;;20.46;27.97
77212;BME280;66206;0.000;0.000;2024-01-27T02:41:44;99501.95;;;20.42;28.18
77212;BME280;66206;0.000;0.000;2024-01-27T02:44:11;99508.91;;;20.56;27.93
77212;BME280;66206;0.000;0.000;2024-01-27T02:46:37;99510.56;;;20.34;28.00
77212;BME280;66206;0.000;0.000;2024-01-27T02:49:04;99512.77;;;20.60;27.92
77212;BME280;66206;0.000;0.000;2024-01-27T02:51:31;99518.41;;;20.41;27.88
77212;BME280;66206;0.000;0.000;2024-01-27T02:53:58;99519.51;;;20.84;27.52
77212;BME280;66206;0.000;0.000;2024-01-27T02:56:24;99518.96;;;20.60;27.86
77212;BME280;66206;0.000;0.000;2024-01-27T02:58:51;99521.40;;;20.92;27.40
77212;BME280;66206;0.000;0.000;2024-01-27T03:01:18;99525.08;;;20.85;27.55
77212;BME280;66206;0.000;0.000;2024-01-27T03:03:44;99526.86;;;20.87;27.43
77212;BME280;66206;0.000;0.000;2024-01-27T03:06:11;99527.99;;;20.95;27.32
77212;BME280;66206;0.000;0.000;2024-01-27T03:08:38;99527.54;;;20.86;27.31
77212;BME280;66206;0.000;0.000;2024-01-27T03:11:04;99530.29;;;21.01;27.24
77212;BME280;66206;0.000;0.000;2024-01-27T03:13:31;99531.79;;;21.07;27.29
77212;BME280;66206;0.000;0.000;2024-01-27T03:15:58;99533.45;;;20.96;27.39
77212;BME280;66206;0.000;0.000;2024-01-27T03:18:24;99535.79;;;20.93;27.41
77212;BME280;66206;0.000;0.000;2024-01-27T03:20:51;99538.62;;;20.94;27.30
77212;BME280;66206;0.000;0.000;2024-01-27T03:23:18;99540.09;;;20.86;27.30
77212;BME280;66206;0.000;0.000;2024-01-27T03:25:44;99543.50;;;21.19;27.16
77212;BME280;66206;0.000;0.000;2024-01-27T03:28:11;99544.84;;;21.00;27.24
77212;BME280;66206;0.000;0.000;2024-01-27T03:30:38;99546.61;;;21.04;27.17
77212;BME280;66206;0.000;0.000;2024-01-27T03:33:04;99548.23;;;21.23;27.15
77212;BME280;66206;0.000;0.000;2024-01-27T03:35:31;99547.10;;;21.04;27.11
77212;BME280;66206;0.000;0.000;2024-01-27T03:37:58;99550.20;;;21.02;27.27
77212;BME280;66206;0.000;0.000;2024-01-27T03:40:24;99547.16;;;21.09;27.14
77212;BME280;66206;0.000;0.000;2024-01-27T03:42:51;99550.08;;;21.02;27.22
77212;BME280;66206;0.000;0.000;2024-01-27T03:45:18;99551.29;;;20.94;27.33
77212;BME280;66206;0.000;0.000;2024-01-27T03:47:44;99549.87;;;21.11;27.08
77212;BME280;66206;0.000;0.000;2024-01-27T03:50:11;99551.70;;;21.17;27.11
77212;BME280;66206;0.000;0.000;2024-01-27T03:52:38;99554.38;;;21.00;27.16
77212;BME280;66206;0.000;0.000;2024-01-27T03:55:05;99559.07;;;21.06;27.19
77212;BME280;66206;0.000;0.000;2024-01-27T03:57:32;99565.68;;;21.02;27.36
77212;BME280;66206;0.000;0.000;2024-01-27T03:59:58;99570.12;;;20.90;27.20
77212;BME280;66206;0.000;0.000;2024-01-27T04:02:25;99574.78;;;20.93;27.30
77212;BME280;66206;0.000;0.000;2024-01-27T04:04:52;99575.99;;;20.93;27.28
77212;BME280;66206;0.000;0.000;2024-01-27T04:07:18;99572.27;;;20.97;27.26
77212;BME280;66206;0.000;0.000;2024-01-27T04:09:45;99572.90;;;20.78;27.47
77212;BME280;66206;0.000;0.000;2024-01-27T04:12:11;99577.09;;;20.49;27.63
77212;BME280;66206;0.000;0.000;2024-01-27T04:14:38;99578.84;;;20.77;27.51
77212;BME280;66206;0.000;0.000;2024-01-27T04:17:05;99579.29;;;20.60;27.63
77212;BME280;66206;0.000;0.000;2024-01-27T04:19:31;99581.76;;;20.74;27.46
77212;BME280;66206;0.000;0.000;2024-01-27T04:21:58;99585.69;;;20.97;27.32
77212;BME280;66206;0.000;0.000;2024-01-27T04:24:25;99586.92;;;20.96;27.26
77212;BME280;66206;0.000;0.000;2024-01-27T04:26:51;99587.19;;;20.99;27.14
77212;BME280;66206;0.000;0.000;2024-01-27T04:29:18;99589.46;;;20.97;27.15
77212;BME280;66206;0.000;0.000;2024-01-27T04:31:45;99590.56;;;21.16;27.11
77212;BME280;66206;0.000;0.000;2024-01-27T04:34:12;99590.26;;;21.36;27.02
77212;BME280;66206;0.000;0.000;2024-01-27T04:36:38;99592.68;;;21.34;27.00
77212;BME280;66206;0.000;0.000;2024-01-27T04:39:05;99593.17;;;21.31;27.02
77212;BME280;66206;0.000;0.000;2024-01-27T04:41:32;99598.12;;;21.26;26.96
77212;BME280;66206;0.000;0.000;2024-01-27T04:43:58;99598.81;;;21.40;26.89
77212;BME280;66206;0.000;0.000;2024-01-27T04:46:25;99601.60;;;21.31;27.01
77212;BME280;66206;0.000;0.000;2024-01-27T04:48:52;99607.01;;;21.17;27.22
77212;BME280;66206;0.000;0.000;2024-01-27T04:51:18;99609.88;;;21.22;27.14
77212;BME280;66206;0.000;0.000;2024-01-27T04:53:45;99610.67;;;21.26;27.18
77212;BME280;66206;0.000;0.000;2024-01-27T04:56:12;99615.06;;;21.14;27.32
77212;BME280;66206;0.000;0.000;2024-01-27T04:58:38;99611.90;;;21.21;27.05
77212;BME280;66206;0.000;0.000;2024-01-27T05:01:05;99610.41;;;21.26;27.05
77212;BME280;66206;0.000;0.000;2024-01-27T05:03:31;99614.85;;;21.35;26.93
77212;BME280;66206;0.000;0.000;2024-01-27T05:05:58;99618.27;;;21.30;26.90
77212;BME280;66206;0.000;0.000;2024-01-27T05:08:25;99620.80;;;21.34;26.86
77212;BME280;66206;0.000;0.000;2024-01-27T05:10:52;99618.58;;;21.42;26.88
77212;BME280;66206;0.000;0.000;2024-01-27T05:13:18;99618.22;;;21.46;26.81
77212;BME280;66206;0.000;0.000;2024-01-27T05:15:45;99619.17;;;21.41;26.78
77212;BME280;66206;0.000;0.000;2024-01-27T05:18:12;99619.98;;;21.52;26.80
77212;BME280;66206;0.000;0.000;2024-01-27T05:20:38;99618.73;;;21.31;27.06
77212;BME280;66206;0.000;0.000;2024-01-27T05:23:05;99622.13;;;21.29;27.00
77212;BME280;66206;0.000;0.000;2024-01-27T05:25:32;99627.70;;;21.32;26.95
77212;BME280;66206;0.000;0.000;2024-01-27T05:27:58;99633.14;;;21.34;26.98
77212;BME280;66206;0.000;0.000;2024-01-27T05:30:25;99631.96;;;21.15;26.93
77212;BME280;66206;0.000;0.000;2024-01-27T05:32:51;99631.16;;;21.25;26.82
77212;BME280;66206;0.000;0.000;2024-01-27T05:35:18;99635.32;;;21.37;26.69
77212;BME280;66206;0.000;0.000;2024-01-27T05:37:45;99637.73;;;21.50;26.54
77212;BME280;66206;0.000;0.000;2024-01-27T05:40:12;99638.88;;;21.45;26.62
77212;BME280;66206;0.000;0.000;2024-01-27T05:42:38;99637.32;;;21.56;26.51
77212;BME280;66206;0.000;0.000;2024-01-27T05:45:06;99640.53;;;21.43;26.56
77212;BME280;66206;0.000;0.000;2024-01-27T05:47:32;99644.41;;;21.38;26.50
77212;BME280;66206;0.000;0.000;2024-01-27T05:49:59;99645.27;;;21.40;26.52
77212;BME280;66206;0.000;0.000;2024-01-27T05:52:26;99647.36;;;21.28;26.50
77212;BME280;66206;0.000;0.000;2024-01-27T05:54:52;99644.79;;;21.38;26.54
77212;BME280;66206;0.000;0.000;2024-01-27T05:57:19;99647.98;;;21.52;26.45
77212;BME280;66206;0.000;0.000;2024-01-27T05:59:46;99648.02;;;21.52;26.39
77212;BME280;66206;0.000;0.000;2024-01-27T06:02:13;99650.25;;;21.63;26.34
77212;BME280;66206;0.000;0.000;2024-01-27T06:04:39;99653.32;;;21.60;26.35
77212;BME280;66206;0.000;0.000;2024-01-27T06:07:06;99653.97;;;21.44;26.43
77212;BME280;66206;0.000;0.000;2024-01-27T06:09:33;99654.76;;;21.55;26.50
77212;BME280;66206;0.000;0.000;2024-01-27T06:11:59;99660.27;;;21.55;26.59
77212;BME280;66206;0.000;0.000;2024-01-27T06:14:26;99664.52;;;21.46;26.62
77212;BME280;66206;0.000;0.000;2024-01-27T06:16:52;99663.79;;;21.45;26.68
77212;BME280;66206;0.000;0.000;2024-01-27T06:19:19;99665.82;;;21.53;26.60
77212;BME280;66206;0.000;0.000;2024-01-27T06:21:46;99663.82;;;21.44;26.61
77212;BME280;66206;0.000;0.000;2024-01-27T06:24:12;99658.26;;;21.54;26.56
77212;BME280;66206;0.000;0.000;2024-01-27T06:26:39;99660.51;;;21.42;26.70
77212;BME280;66206;0.000;0.000;2024-01-27T06:29:06;99663.40;;;21.66;26.46
77212;BME280;66206;0.000;0.000;2024-01-27T06:31:32;99666.56;;;21.49;26.60
77212;BME280;66206;0.000;0.000;2024-01-27T06:33:59;99665.09;;;21.59;26.55
77212;BME280;66206;0.000;0.000;2024-01-27T06:36:26;99666.90;;;21.49;26.45
77212;BME280;66206;0.000;0.000;2024-01-27T06:38:52;99668.65;;;21.53;26.45
77212;BME280;66206;0.000;0.000;2024-01-27T06:41:19;99673.69;;;21.49;26.54
77212;BME280;66206;0.000;0.000;2024-01-27T06:43:46;99679.50;;;21.61;26.44
77212;BME280;66206;0.000;0.000;2024-01-27T06:46:12;99685.83;;;21.51;26.59
77212;BME280;66206;0.000;0.000;2024-01-27T06:48:39;99687.20;;;21.43;26.64
77212;BME280;66206;0.000;0.000;2024-01-27T06:51:06;99686.90;;;21.54;26.66
77212;BME280;66206;0.000;0.000;2024-01-27T06:53:33;99687.22;;;21.58;26.61
77212;BME280;66206;0.000;0.000;2024-01-27T06:55:59;99681.52;;;21.50;26.58
77212;BME280;66206;0.000;0.000;2024-01-27T06:58:26;99681.56;;;21.44;26.56
77212;BME280;66206;0.000;0.000;2024-01-27T07:00:53;99682.41;;;21.58;26.52
77212;BME280;66206;0.000;0.000;2024-01-27T07:03:19;99683.20;;;21.44;26.54
77212;BME280;66206;0.000;0.000;2024-01-27T07:05:46;99679.70;;;21.44;26.57
77212;BME280;66206;0.000;0.000;2024-01-27T07:08:13;99684.29;;;21.55;26.48
77212;BME280;66206;0.000;0.000;2024-01-27T07:10:39;99687.53;;;21.59;26.56
77212;BME280;66206;0.000;0.000;2024-01-27T07:13:06;99694.70;;;21.52;26.60
77212;BME280;66206;0.000;0.000;2024-01-27T07:15:33;99700.66;;;21.50;26.54
77212;BME280;66206;0.000;0.000;2024-01-27T07:17:59;99699.97;;;21.41;26.69
77212;BME280;66206;0.000;0.000;2024-01-27T07:20:26;99698.15;;;21.59;26.57
77212;BME280;66206;0.000;0.000;2024-01-27T07:22:52;99699.01;;;21.53;26.66
77212;BME280;66206;0.000;0.000;2024-01-27T07:25:19;99702.80;;;21.49;26.60
77212;BME280;66206;0.000;0.000;2024-01-27T07:27:46;99712.82;;;21.61;26.61
77212;BME280;66206;0.000;0.000;2024-01-27T07:30:14;99721.24;;;21.58;26.51
77212;BME280;66206;0.000;0.000;2024-01-27T07:32:41;99728.35;;;21.62;26.53
77212;BME280;66206;0.000;0.000;2024-01-27T07:35:08;99729.14;;;21.66;26.54
77212;BME280;66206;0.000;0.000;2024-01-27T07:37:34;99730.27;;;21.66;26.58
77212;BME280;66206;0.000;0.000;2024-01-27T07:40:01;99731.92;;;21.59;26.65
77212;BME280;66206;0.000;0.000;2024-01-27T07:42:28;99729.53;;;21.57;26.73
77212;BME280;66206;0.000;0.000;2024-01-27T07:44:54;99731.24;;;21.60;26.77
77212;BME280;66206;0.000;0.000;2024-01-27T07:47:21;99730.45;;;21.43;26.77
77212;BME280;66206;0.000;0.000;2024-01-27T07:49:48;99731.74;;;21.46;26.91
77212;BME280;66206;0.000;0.000;2024-01-27T07:52:14;99737.41;;;21.45;26.97
77212;BME280;66206;0.000;0.000;2024-01-27T07:54:41;99746.40;;;21.37;27.06
77212;BME280;66206;0.000;0.000;2024-01-27T07:57:08;99749.99;;;21.26;27.23
77212;BME280;66206;0.000;0.000;2024-01-27T07:59:34;99752.03;;;21.23;27.20
77212;BME280;66206;0.000;0.000;2024-01-27T08:02:01;99748.53;;;21.06;27.34
77212;BME280;66206;0.000;0.000;2024-01-27T08:04:28;99751.22;;;21.27;27.23
77212;BME280;66206;0.000;0.000;2024-01-27T08:06:54;99751.39;;;21.21;27.35
77212;BME280;66206;0.000;0.000;2024-01-27T08:09:21;99750.99;;;21.17;27.17
77212;BME280;66206;0.000;0.000;2024-01-27T08:11:47;99756.17;;;21.18;27.27
77212;BME280;66206;0.000;0.000;2024-01-27T08:14:14;99756.12;;;21.16;27.34
77212;BME280;66206;0.000;0.000;2024-01-27T08:16:41;99754.84;;;21.07;27.32
77212;BME280;66206;0.000;0.000;2024-01-27T08:19:07;99751.47;;;20.93;27.49
77212;BME280;66206;0.000;0.000;2024-01-27T08:21:34;99748.16;;;20.88;27.46
77212;BME280;66206;0.000;0.000;2024-01-27T08:24:01;99748.03;;;20.97;27.50
77212;BME280;66206;0.000;0.000;2024-01-27T08:26:27;99750.91;;;21.00;27.47
77212;BME280;66206;0.000;0.000;2024-01-27T08:28:54;99749.12;;;21.11;27.42
77212;BME280;66206;0.000;0.000;2024-01-27T08:31:21;99747.39;;;20.85;27.57
77212;BME280;66206;0.000;0.000;2024-01-27T08:33:48;99747.03;;;20.93;27.64
77212;BME280;66206;0.000;0.000;2024-01-27T08:36:14;99748.43;;;20.97;27.56
77212;BME280;66206;0.000;0.000;2024-01-27T08:38:41;99747.97;;;21.01;27.72
77212;BME280;66206;0.000;0.000;2024-01-27T08:41:08;99750.12;;;20.92;27.84
77212;BME280;66206;0.000;0.000;2024-01-27T08:43:35;99751.00;;;21.27;27.63
77212;BME280;66206;0.000;0.000;2024-01-27T08:46:01;99753.22;;;21.39;27.56
77212;BME280;66206;0.000;0.000;2024-01-27T08:48:28;99757.34;;;21.29;27.60
77212;BME280;66206;0.000;0.000;2024-01-27T08:50:55;99758.24;;;21.22;27.62
77212;BME280;66206;0.000;0.000;2024-01-27T08:53:21;99759.16;;;21.32;27.56
77212;BME280;66206;0.000;0.000;2024-01-27T08:55:48;99758.75;;;21.40;27.56
77212;BME280;66206;0.000;0.000;2024-01-27T08:58:15;99767.63;;;21.32;27.68
77212;BME280;66206;0.000;0.000;2024-01-27T09:00:41;99767.64;;;21.44;27.59
77212;BME280;66206;0.000;0.000;2024-01-27T09:03:08;99767.03;;;21.42;27.68
77212;BME280;66206;0.000;0.000;2024-01-27T09:05:35;99768.41;;;21.36;27.43
77212;BME280;66206;0.000;0.000;2024-01-27T09:08:01;99772.81;;;21.53;27.51
77212;BME280;66206;0.000;0.000;2024-01-27T09:10:28;99775.58;;;21.53;27.49
77212;BME280;66206;0.000;0.000;2024-01-27T09:12:55;99781.52;;;21.51;27.41
77212;BME280;66206;0.000;0.000;2024-01-27T09:15:21;99783.81;;;21.70;27.15
77212;BME280;66206;0.000;0.000;2024-01-27T09:17:48;99780.62;;;21.56;27.66
77212;BME280;66206;0.000;0.000;2024-01-27T09:20:15;99771.02;;;21.58;27.69
77212;BME280;66206;0.000;0.000;2024-01-27T09:22:41;99770.09;;;21.53;27.80
77212;BME280;66206;0.000;0.000;2024-01-27T09:25:08;99771.61;;;21.65;27.83
77212;BME280;66206;0.000;0.000;2024-01-27T09:27:35;99776.40;;;21.55;27.88
77212;BME280;66206;0.000;0.000;2024-01-27T09:30:02;99781.49;;;21.46;28.02
77212;BME280;66206;0.000;0.000;2024-01-27T09:32:28;99792.47;;;21.46;28.04
77212;BME280;66206;0.000;0.000;2024-01-27T09:34:55;99794.87;;;21.63;28.01
77212;BME280;66206;0.000;0.000;2024-01-27T09:37:22;99795.73;;;21.59;27.92
77212;BME280;66206;0.000;0.000;2024-01-27T09:39:48;99794.92;;;21.66;27.82
77212;BME280;66206;0.000;0.000;2024-01-27T09:42:15;99793.29;;;21.72;27.72
77212;BME280;66206;0.000;0.000;2024-01-27T09:44:43;99793.45;;;21.57;28.24
77212;BME280;66206;0.000;0.000;2024-01-27T09:47:11;99793.90;;;21.67;28.69
77212;BME280;66206;0.000;0.000;2024-01-27T09:49:39;99790.63;;;20.94;29.27
77212;BME280;66206;0.000;0.000;2024-01-27T09:52:05;99795.67;;;21.33;28.83
77212;BME280;66206;0.000;0.000;2024-01-27T09:54:32;99795.95;;;21.80;28.66
77212;BME280;66206;0.000;0.000;2024-01-27T09:57:00;99799.89;;;22.15;28.57
77212;BME280;66206;0.000;0.000;2024-01-27T09:59:27;99801.95;;;21.54;29.37
77212;BME280;66206;0.000;0.000;2024-01-27T10:01:54;99799.77;;;21.67;29.03
77212;BME280;66206;0.000;0.000;2024-01-27T10:04:20;99803.82;;;21.91;28.53
77212;BME280;66206;0.000;0.000;2024-01-27T10:06:49;99807.60;;;22.03;28.39
77212;BME280;66206;0.000;0.000;2024-01-27T10:09:16;99810.31;;;21.84;28.56
77212;BME280;66206;0.000;0.000;2024-01-27T10:11:45;99806.95;;;22.06;28.38
77212;BME280;66206;0.000;0.000;2024-01-27T10:14:12;99802.64;;;22.37;28.29
77212;BME280;66206;0.000;0.000;2024-01-27T10:16:40;99808.03;;;22.04;28.24
77212;BME280;66206;0.000;0.000;2024-01-27T10:19:06;99806.35;;;21.92;28.39
77212;BME280;66206;0.000;0.000;2024-01-27T10:21:33;99805.32;;;21.57;28.94
77212;BME280;66206;0.000;0.000;2024-01-27T10:23:59;99805.04;;;21.83;28.67
77212;BME280;66206;0.000;0.000;2024-01-27T10:26:26;99799.97;;;21.54;28.68
77212;BME280;66206;0.000;0.000;2024-01-27T10:28:52;99801.40;;;21.51;28.58
77212;BME280;66206;0.000;0.000;2024-01-27T10:31:19;99805.61;;;21.75;28.50
77212;BME280;66206;0.000;0.000;2024-01-27T10:33:51;99805.92;;;21.84;28.39
77212;BME280;66206;0.000;0.000;2024-01-27T10:36:12;99800.41;;;22.15;28.38
77212;BME280;66206;0.000;0.000;2024-01-27T10:38:39;99801.12;;;22.52;27.75
77212;BME280;66206;0.000;0.000;2024-01-27T10:41:07;99794.23;;;22.69;27.71
77212;BME280;66206;0.000;0.000;2024-01-27T10:43:34;99792.85;;;22.80;27.68
77212;BME280;66206;0.000;0.000;2024-01-27T10:46:02;99795.06;;;22.30;28.35
77212;BME280;66206;0.000;0.000;2024-01-27T10:48:30;99795.49;;;22.25;28.07
77212;BME280;66206;0.000;0.000;2024-01-27T10:50:58;99792.41;;;22.48;27.85
77212;BME280;66206;0.000;0.000;2024-01-27T10:53:25;99785.04;;;22.07;28.28
77212;BME280;66206;0.000;0.000;2024-01-27T10:55:53;99784.65;;;22.41;28.04
77212;BME280;66206;0.000;0.000;2024-01-27T10:58:19;99780.11;;;22.45;27.95
77212;BME280;66206;0.000;0.000;2024-01-27T11:00:47;99776.32;;;22.75;27.58
77212;BME280;66206;0.000;0.000;2024-01-27T11:03:15;99774.14;;;22.25;27.99
77212;BME280;66206;0.000;0.000;2024-01-27T11:05:44;99777.16;;;22.38;27.86
77212;BME280;66206;0.000;0.000;2024-01-27T11:08:12;99778.87;;;22.36;27.84
77212;BME280;66206;0.000;0.000;2024-01-27T11:10:39;99777.98;;;22.11;27.98
77212;BME280;66206;0.000;0.000;2024-01-27T11:13:06;99776.85;;;21.96;28.04
77212;BME280;66206;0.000;0.000;2024-01-27T11:15:34;99775.25;;;21.67;28.68
77212;BME280;66206;0.000;0.000;2024-01-27T11:18:01;99772.85;;;21.98;28.21
77212;BME280;66206;0.000;0.000;2024-01-27T11:20:27;99779.21;;;22.28;28.10
77212;BME280;66206;0.000;0.000;2024-01-27T11:23:07;99775.55;;;22.42;27.84
77212;BME280;66206;0.000;0.000;2024-01-27T11:25:23;99771.07;;;22.29;27.90
77212;BME280;66206;0.000;0.000;2024-01-27T11:27:50;99771.20;;;22.14;28.05
77212;BME280;66206;0.000;0.000;2024-01-27T11:30:32;99773.15;;;21.89;28.16
77212;BME280;66206;0.000;0.000;2024-01-27T11:32:43;99772.84;;;22.08;28.03
77212;BME280;66206;0.000;0.000;2024-01-27T11:35:10;99776.84;;;22.22;27.79
77212;BME280;66206;0.000;0.000;2024-01-27T11:37:37;99776.99;;;22.35;27.62
77212;BME280;66206;0.000;0.000;2024-01-27T11:40:04;99770.12;;;22.19;27.47
77212;BME280;66206;0.000;0.000;2024-01-27T11:42:31;99767.23;;;22.26;27.49
77212;BME280;66206;0.000;0.000;2024-01-27T11:44:57;99774.11;;;22.60;27.15
77212;BME280;66206;0.000;0.000;2024-01-27T11:47:25;99769.25;;;22.53;27.22
77212;BME280;66206;0.000;0.000;2024-01-27T11:49:52;99769.33;;;22.36;27.35
77212;BME280;66206;0.000;0.000;2024-01-27T11:52:19;99775.44;;;22.26;27.41
77212;BME280;66206;0.000;0.000;2024-01-27T11:54:46;99770.85;;;22.33;27.35
77212;BME280;66206;0.000;0.000;2024-01-27T11:57:14;99763.90;;;22.29;27.55
77212;BME280;66206;0.000;0.000;2024-01-27T11:59:41;99764.54;;;22.26;27.51
77212;BME280;66206;0.000;0.000;2024-01-27T12:02:08;99765.74;;;22.20;27.53
77212;BME280;66206;0.000;0.000;2024-01-27T12:04:34;99763.42;;;22.37;27.50
77212;BME280;66206;0.000;0.000;2024-01-27T12:07:01;99758.26;;;22.48;27.36
77212;BME280;66206;0.000;0.000;2024-01-27T12:09:28;99753.82;;;22.48;27.26
77212;BME280;66206;0.000;0.000;2024-01-27T12:11:55;99751.45;;;22.46;27.32
77212;BME280;66206;0.000;0.000;2024-01-27T12:14:22;99747.58;;;22.25;27.48
77212;BME280;66206;0.000;0.000;2024-01-27T12:16:49;99746.14;;;22.06;27.61
77212;BME280;66206;0.000;0.000;2024-01-27T12:19:15;99744.82;;;22.17;27.75
77212;BME280;66206;0.000;0.000;2024-01-27T12:21:47;99743.24;;;22.04;27.69
77212;BME280;66206;0.000;0.000;2024-01-27T12:24:14;99749.63;;;22.22;27.51
77212;BME280;66206;0.000;0.000;2024-01-27T12:26:36;99756.23;;;22.24;27.51
77212;BME280;66206;0.000;0.000;2024-01-27T12:29:03;99754.57;;;21.92;27.85
77212;BME280;66206;0.000;0.000;2024-01-27T12:31:29;99763.51;;;22.70;27.07
77212;BME280;66206;0.000;0.000;2024-01-27T12:33:56;99765.42;;;22.32;27.33
77212;BME280;66206;0.000;0.000;2024-01-27T12:36:23;99763.05;;;22.27;27.49
77212;BME280;66206;0.000;0.000;2024-01-27T12:38:53;99767.41;;;22.03;27.65
77212;BME280;66206;0.000;0.000;2024-01-27T12:41:15;99766.39;;;22.18;27.58
77212;BME280;66206;0.000;0.000;2024-01-27T12:43:42;99760.40;;;22.09;27.48
77212;BME280;66206;0.000;0.000;2024-01-27T12:46:08;99756.12;;;22.46;27.22
77212;BME280;66206;0.000;0.000;2024-01-27T12:48:35;99753.22;;;22.30;27.32
77212;BME280;66206;0.000;0.000;2024-01-27T12:51:02;99752.68;;;22.07;27.25
77212;BME280;66206;0.000;0.000;2024-01-27T12:53:28;99747.66;;;22.03;27.47
77212;BME280;66206;0.000;0.000;2024-01-27T12:55:55;99745.56;;;22.15;27.42
77212;BME280;66206;0.000;0.000;2024-01-27T12:58:22;99743.19;;;21.83;27.51
77212;BME280;66206;0.000;0.000;2024-01-27T13:00:49;99747.22;;;21.77;27.63
77212;BME280;66206;0.000;0.000;2024-01-27T13:03:15;99747.48;;;21.88;27.64
77212;BME280;66206;0.000;0.000;2024-01-27T13:05:42;99745.47;;;21.89;27.63